sensor_id;sensor_type;location;lat;lon;timestamp;pressure;altitude;pressure_sealevel;temperature;humidity
54936;BME280;40838;50.676;7.838;2023-02-15T00:02:02;99661.94;;;-1.33;100.00
54936;BME280;40838;50.676;7.838;2023-02-15T00:04:29;99658.56;;;-1.83;100.00
54936;BME280;40838;50.676;7.838;2023-02-15T00:07:12;99659.84;;;-1.71;100.00
54936;BME280;40838;50.676;7.838;2023-02-15T00:09:39;99651.88;;;-1.85;100.00
54936;BME280;40838;50.676;7.838;2023-02-15T00:12:06;99660.19;;;-1.98;100.00
54936;BME280;40838;50.676;7.838;2023-02-15T00:14:33;99643.72;;;-1.99;100.00
54936;BME280;40838;50.676;7.838;2023-02-15T00:16:59;99642.88;;;-1.91;100.00
54936;BME280;40838;50.676;7.838;2023-02-15T00:19:26;99639.16;;;-2.13;100.00
54936;BME280;40838;50.676;7.838;2023-02-15T00:21:53;99642.06;;;-1.92;100.00
54936;BME280;40838;50.676;7.838;2023-02-15T00:24:22;99642.09;;;-2.16;100.00
54936;BME280;40838;50.676;7.838;2023-02-15T00:26:49;99642.91;;;-2.07;100.00
54936;BME280;40838;50.676;7.838;2023-02-15T00:29:17;99634.00;;;-1.41;100.00
54936;BME280;40838;50.676;7.838;2023-02-15T00:31:47;99643.06;;;-2.01;100.00
54936;BME280;40838;50.676;7.838;2023-02-15T00:34:17;99640.13;;;-1.98;100.00
54936;BME280;40838;50.676;7.838;2023-02-15T00:36:44;99644.03;;;-1.85;100.00
54936;BME280;40838;50.676;7.838;2023-02-15T00:39:14;99649.44;;;-1.87;100.00
54936;BME280;40838;50.676;7.838;2023-02-15T00:41:43;99641.41;;;-1.94;100.00
54936;BME280;40838;50.676;7.838;2023-02-15T00:44:10;99638.97;;;-1.95;100.00
54936;BME280;40838;50.676;7.838;2023-02-15T00:46:38;99639.94;;;-1.55;100.00
54936;BME280;40838;50.676;7.838;2023-02-15T00:49:08;99640.03;;;-1.32;100.00
54936;BME280;40838;50.676;7.838;2023-02-15T00:51:37;99632.63;;;-2.01;100.00
54936;BME280;40838;50.676;7.838;2023-02-15T00:54:04;99642.88;;;-2.24;100.00
54936;BME280;40838;50.676;7.838;2023-02-15T00:56:31;99638.00;;;-2.10;100.00
54936;BME280;40838;50.676;7.838;2023-02-15T00:59:01;99635.34;;;-2.35;100.00
54936;BME280;40838;50.676;7.838;2023-02-15T01:01:28;99638.75;;;-2.51;100.00
54936;BME280;40838;50.676;7.838;2023-02-15T01:03:55;99634.38;;;-2.26;100.00
54936;BME280;40838;50.676;7.838;2023-02-15T01:06:22;99635.69;;;-2.97;100.00
54936;BME280;40838;50.676;7.838;2023-02-15T01:08:49;99620.00;;;-3.13;100.00
54936;BME280;40838;50.676;7.838;2023-02-15T01:11:17;99623.44;;;-3.39;100.00
54936;BME280;40838;50.676;7.838;2023-02-15T01:13:47;99611.16;;;-3.20;100.00
54936;BME280;40838;50.676;7.838;2023-02-15T01:16:17;99598.88;;;-3.36;100.00
54936;BME280;40838;50.676;7.838;2023-02-15T01:18:44;99612.66;;;-3.70;100.00
54936;BME280;40838;50.676;7.838;2023-02-15T01:21:12;99616.88;;;-3.77;100.00
54936;BME280;40838;50.676;7.838;2023-02-15T01:23:43;99607.66;;;-3.63;100.00
54936;BME280;40838;50.676;7.838;2023-02-15T01:26:12;99615.69;;;-3.57;100.00
54936;BME280;40838;50.676;7.838;2023-02-15T01:28:39;99617.44;;;-3.65;100.00
54936;BME280;40838;50.676;7.838;2023-02-15T01:31:07;99615.22;;;-3.78;100.00
54936;BME280;40838;50.676;7.838;2023-02-15T01:33:38;99605.72;;;-3.87;100.00
54936;BME280;40838;50.676;7.838;2023-02-15T01:36:05;99597.66;;;-3.76;100.00
54936;BME280;40838;50.676;7.838;2023-02-15T01:38:32;99592.94;;;-3.73;100.00
54936;BME280;40838;50.676;7.838;2023-02-15T01:41:00;99591.88;;;-3.88;100.00
54936;BME280;40838;50.676;7.838;2023-02-15T01:43:42;99593.22;;;-4.02;100.00
54936;BME280;40838;50.676;7.838;2023-02-15T01:46:13;99585.91;;;-3.80;100.00
54936;BME280;40838;50.676;7.838;2023-02-15T01:48:44;99593.63;;;-3.70;100.00
54936;BME280;40838;50.676;7.838;2023-02-15T01:51:14;99598.53;;;-3.67;100.00
54936;BME280;40838;50.676;7.838;2023-02-15T01:53:47;99599.81;;;-3.37;100.00
54936;BME280;40838;50.676;7.838;2023-02-15T01:56:19;99590.78;;;-3.25;100.00
54936;BME280;40838;50.676;7.838;2023-02-15T01:58:49;99597.06;;;-3.36;100.00
54936;BME280;40838;50.676;7.838;2023-02-15T02:01:18;99603.91;;;-3.87;100.00
54936;BME280;40838;50.676;7.838;2023-02-15T02:03:55;99589.41;;;-3.71;100.00
54936;BME280;40838;50.676;7.838;2023-02-15T02:06:23;99588.09;;;-3.67;100.00
54936;BME280;40838;50.676;7.838;2023-02-15T02:08:52;99583.25;;;-3.62;100.00
54936;BME280;40838;50.676;7.838;2023-02-15T02:11:19;99584.72;;;-3.25;100.00
54936;BME280;40838;50.676;7.838;2023-02-15T02:13:46;99582.00;;;-3.16;100.00
54936;BME280;40838;50.676;7.838;2023-02-15T02:16:17;99585.94;;;-3.12;100.00
54936;BME280;40838;50.676;7.838;2023-02-15T02:18:59;99572.53;;;-3.25;100.00
54936;BME280;40838;50.676;7.838;2023-02-15T02:25:03;99575.44;;;-3.62;100.00
54936;BME280;40838;50.676;7.838;2023-02-15T02:27:42;99556.22;;;-3.87;100.00
54936;BME280;40838;50.676;7.838;2023-02-15T02:30:45;99556.41;;;-3.63;100.00
54936;BME280;40838;50.676;7.838;2023-02-15T02:33:40;99562.06;;;-3.67;100.00
54936;BME280;40838;50.676;7.838;2023-02-15T02:36:15;99567.47;;;-3.87;100.00
54936;BME280;40838;50.676;7.838;2023-02-15T02:38:56;99556.22;;;-3.87;100.00
54936;BME280;40838;50.676;7.838;2023-02-15T02:41:34;99562.69;;;-3.74;100.00
54936;BME280;40838;50.676;7.838;2023-02-15T02:44:09;99548.03;;;-3.75;100.00
54936;BME280;40838;50.676;7.838;2023-02-15T02:46:46;99546.78;;;-3.62;100.00
54936;BME280;40838;50.676;7.838;2023-02-15T02:49:14;99556.66;;;-4.00;100.00
54936;BME280;40838;50.676;7.838;2023-02-15T02:51:41;99543.81;;;-3.67;100.00
54936;BME280;40838;50.676;7.838;2023-02-15T02:54:09;99534.53;;;-3.36;100.00
54936;BME280;40838;50.676;7.838;2023-02-15T02:56:43;99532.59;;;-3.94;100.00
54936;BME280;40838;50.676;7.838;2023-02-15T02:59:16;99542.16;;;-3.34;100.00
54936;BME280;40838;50.676;7.838;2023-02-15T03:01:48;99533.84;;;-3.72;100.00
54936;BME280;40838;50.676;7.838;2023-02-15T03:04:21;99538.38;;;-3.82;100.00
54936;BME280;40838;50.676;7.838;2023-02-15T03:06:54;99547.06;;;-4.00;100.00
54936;BME280;40838;50.676;7.838;2023-02-15T03:09:27;99536.19;;;-3.95;100.00
54936;BME280;40838;50.676;7.838;2023-02-15T03:12:07;99532.91;;;-3.71;100.00
54936;BME280;40838;50.676;7.838;2023-02-15T03:14:40;99529.41;;;-4.32;100.00
54936;BME280;40838;50.676;7.838;2023-02-15T03:17:11;99521.91;;;-4.35;100.00
54936;BME280;40838;50.676;7.838;2023-02-15T03:19:43;99532.38;;;-4.27;100.00
54936;BME280;40838;50.676;7.838;2023-02-15T03:22:20;99523.38;;;-4.14;100.00
54936;BME280;40838;50.676;7.838;2023-02-15T03:24:53;99521.28;;;-4.11;100.00
54936;BME280;40838;50.676;7.838;2023-02-15T03:27:26;99520.50;;;-4.29;100.00
54936;BME280;40838;50.676;7.838;2023-02-15T03:29:56;99519.53;;;-4.46;100.00
54936;BME280;40838;50.676;7.838;2023-02-15T03:32:28;99523.44;;;-4.06;100.00
54936;BME280;40838;50.676;7.838;2023-02-15T03:34:57;99513.81;;;-4.32;100.00
54936;BME280;40838;50.676;7.838;2023-02-15T03:37:28;99508.16;;;-4.45;100.00
54936;BME280;40838;50.676;7.838;2023-02-15T03:40:03;99512.41;;;-4.44;100.00
54936;BME280;40838;50.676;7.838;2023-02-15T03:42:49;99509.72;;;-4.34;100.00
54936;BME280;40838;50.676;7.838;2023-02-15T03:45:22;99507.75;;;-4.14;100.00
54936;BME280;40838;50.676;7.838;2023-02-15T03:47:52;99510.19;;;-4.57;100.00
54936;BME280;40838;50.676;7.838;2023-02-15T03:50:26;99511.31;;;-4.42;100.00
54936;BME280;40838;50.676;7.838;2023-02-15T03:53:14;99511.75;;;-4.46;100.00
54936;BME280;40838;50.676;7.838;2023-02-15T03:55:46;99506.06;;;-4.24;100.00
54936;BME280;40838;50.676;7.838;2023-02-15T03:58:13;99507.97;;;-4.52;100.00
54936;BME280;40838;50.676;7.838;2023-02-15T04:00:59;99494.97;;;-4.26;100.00
54936;BME280;40838;50.676;7.838;2023-02-15T04:03:45;99506.09;;;-4.42;100.00
54936;BME280;40838;50.676;7.838;2023-02-15T04:06:17;99486.25;;;-4.43;100.00
54936;BME280;40838;50.676;7.838;2023-02-15T04:08:44;99505.03;;;-4.31;100.00
54936;BME280;40838;50.676;7.838;2023-02-15T04:11:28;99500.97;;;-4.69;100.00
54936;BME280;40838;50.676;7.838;2023-02-15T04:13:56;99503.13;;;-4.47;100.00
54936;BME280;40838;50.676;7.838;2023-02-15T04:16:24;99495.03;;;-4.61;100.00
54936;BME280;40838;50.676;7.838;2023-02-15T04:18:52;99507.16;;;-4.70;100.00
54936;BME280;40838;50.676;7.838;2023-02-15T04:21:38;99509.97;;;-4.46;100.00
54936;BME280;40838;50.676;7.838;2023-02-15T04:24:22;99509.81;;;-4.44;100.00
54936;BME280;40838;50.676;7.838;2023-02-15T04:27:06;99508.88;;;-4.61;100.00
54936;BME280;40838;50.676;7.838;2023-02-15T04:29:33;99495.31;;;-4.47;100.00
54936;BME280;40838;50.676;7.838;2023-02-15T04:32:00;99493.25;;;-4.61;100.00
54936;BME280;40838;50.676;7.838;2023-02-15T04:34:28;99494.84;;;-4.68;100.00
54936;BME280;40838;50.676;7.838;2023-02-15T04:36:56;99497.78;;;-4.63;100.00
54936;BME280;40838;50.676;7.838;2023-02-15T04:39:22;99499.81;;;-4.93;100.00
54936;BME280;40838;50.676;7.838;2023-02-15T04:41:49;99504.69;;;-4.72;100.00
54936;BME280;40838;50.676;7.838;2023-02-15T04:44:16;99498.03;;;-4.56;100.00
54936;BME280;40838;50.676;7.838;2023-02-15T04:46:43;99504.34;;;-4.77;100.00
54936;BME280;40838;50.676;7.838;2023-02-15T04:49:10;99508.06;;;-4.79;100.00
54936;BME280;40838;50.676;7.838;2023-02-15T04:51:39;99501.06;;;-4.61;100.00
54936;BME280;40838;50.676;7.838;2023-02-15T04:54:07;99498.56;;;-4.71;100.00
54936;BME280;40838;50.676;7.838;2023-02-15T04:56:34;99487.72;;;-4.40;100.00
54936;BME280;40838;50.676;7.838;2023-02-15T04:59:03;99494.63;;;-4.31;100.00
54936;BME280;40838;50.676;7.838;2023-02-15T05:01:31;99485.00;;;-4.56;100.00
54936;BME280;40838;50.676;7.838;2023-02-15T05:03:59;99477.69;;;-4.35;100.00
54936;BME280;40838;50.676;7.838;2023-02-15T05:06:26;99485.38;;;-4.69;100.00
54936;BME280;40838;50.676;7.838;2023-02-15T05:08:53;99481.53;;;-4.65;100.00
54936;BME280;40838;50.676;7.838;2023-02-15T05:11:21;99489.56;;;-4.32;100.00
54936;BME280;40838;50.676;7.838;2023-02-15T05:13:48;99496.22;;;-4.56;100.00
54936;BME280;40838;50.676;7.838;2023-02-15T05:16:17;99483.81;;;-4.44;100.00
54936;BME280;40838;50.676;7.838;2023-02-15T05:18:44;99491.97;;;-4.39;100.00
54936;BME280;40838;50.676;7.838;2023-02-15T05:21:16;99494.75;;;-4.58;100.00
54936;BME280;40838;50.676;7.838;2023-02-15T05:23:43;99480.47;;;-4.02;100.00
54936;BME280;40838;50.676;7.838;2023-02-15T05:26:11;99486.84;;;-4.49;100.00
54936;BME280;40838;50.676;7.838;2023-02-15T05:28:57;99483.59;;;-4.51;100.00
54936;BME280;40838;50.676;7.838;2023-02-15T05:31:24;99489.84;;;-4.61;100.00
54936;BME280;40838;50.676;7.838;2023-02-15T05:33:51;99481.13;;;-4.52;100.00
54936;BME280;40838;50.676;7.838;2023-02-15T05:36:18;99490.53;;;-4.59;100.00
54936;BME280;40838;50.676;7.838;2023-02-15T05:38:45;99470.28;;;-4.48;100.00
54936;BME280;40838;50.676;7.838;2023-02-15T05:41:11;99477.88;;;-4.72;100.00
54936;BME280;40838;50.676;7.838;2023-02-15T05:43:39;99477.44;;;-4.68;100.00
54936;BME280;40838;50.676;7.838;2023-02-15T05:46:07;99484.84;;;-4.55;100.00
54936;BME280;40838;50.676;7.838;2023-02-15T05:48:35;99479.50;;;-4.53;100.00
54936;BME280;40838;50.676;7.838;2023-02-15T05:51:04;99481.13;;;-4.52;100.00
54936;BME280;40838;50.676;7.838;2023-02-15T05:53:33;99487.47;;;-4.73;100.00
54936;BME280;40838;50.676;7.838;2023-02-15T05:56:01;99471.75;;;-4.45;100.00
54936;BME280;40838;50.676;7.838;2023-02-15T05:58:29;99476.13;;;-4.46;100.00
54936;BME280;40838;50.676;7.838;2023-02-15T06:00:57;99489.38;;;-4.57;100.00
54936;BME280;40838;50.676;7.838;2023-02-15T06:03:25;99486.59;;;-4.81;100.00
54936;BME280;40838;50.676;7.838;2023-02-15T06:05:54;99492.72;;;-4.47;100.00
54936;BME280;40838;50.676;7.838;2023-02-15T06:08:20;99488.81;;;-4.51;100.00
54936;BME280;40838;50.676;7.838;2023-02-15T06:10:47;99476.69;;;-4.60;100.00
54936;BME280;40838;50.676;7.838;2023-02-15T06:13:14;99492.97;;;-4.58;100.00
54936;BME280;40838;50.676;7.838;2023-02-15T06:15:41;99496.53;;;-4.59;100.00
54936;BME280;40838;50.676;7.838;2023-02-15T06:18:08;99498.09;;;-4.66;100.00
54936;BME280;40838;50.676;7.838;2023-02-15T06:20:37;99496.09;;;-4.02;100.00
54936;BME280;40838;50.676;7.838;2023-02-15T06:23:04;99495.47;;;-4.30;100.00
54936;BME280;40838;50.676;7.838;2023-02-15T06:25:31;99494.53;;;-4.65;100.00
54936;BME280;40838;50.676;7.838;2023-02-15T06:27:58;99489.69;;;-4.78;100.00
54936;BME280;40838;50.676;7.838;2023-02-15T06:30:28;99495.84;;;-4.61;100.00
54936;BME280;40838;50.676;7.838;2023-02-15T06:32:55;99497.44;;;-4.68;100.00
54936;BME280;40838;50.676;7.838;2023-02-15T06:35:21;99488.13;;;-4.53;100.00
54936;BME280;40838;50.676;7.838;2023-02-15T06:37:50;99494.81;;;-4.86;100.00
54936;BME280;40838;50.676;7.838;2023-02-15T06:40:17;99496.59;;;-4.69;100.00
54936;BME280;40838;50.676;7.838;2023-02-15T06:42:44;99496.84;;;-4.62;100.00
54936;BME280;40838;50.676;7.838;2023-02-15T06:45:11;99484.13;;;-4.65;100.00
54936;BME280;40838;50.676;7.838;2023-02-15T06:47:38;99487.69;;;-4.66;100.00
54936;BME280;40838;50.676;7.838;2023-02-15T06:50:07;99490.47;;;-4.85;100.00
54936;BME280;40838;50.676;7.838;2023-02-15T06:52:34;99503.66;;;-4.61;100.00
54936;BME280;40838;50.676;7.838;2023-02-15T06:55:06;99491.47;;;-4.60;100.00
54936;BME280;40838;50.676;7.838;2023-02-15T06:57:33;99507.00;;;-4.69;100.00
54936;BME280;40838;50.676;7.838;2023-02-15T07:00:00;99495.47;;;-4.48;100.00
54936;BME280;40838;50.676;7.838;2023-02-15T07:02:30;99499.41;;;-4.44;100.00
54936;BME280;40838;50.676;7.838;2023-02-15T07:04:57;99494.84;;;-3.98;100.00
54936;BME280;40838;50.676;7.838;2023-02-15T07:07:23;99508.88;;;-4.17;100.00
54936;BME280;40838;50.676;7.838;2023-02-15T07:09:50;99504.03;;;-4.56;100.00
54936;BME280;40838;50.676;7.838;2023-02-15T07:12:19;99508.94;;;-4.53;100.00
54936;BME280;40838;50.676;7.838;2023-02-15T07:15:04;99513.94;;;-4.33;100.00
54936;BME280;40838;50.676;7.838;2023-02-15T07:17:33;99502.16;;;-4.46;100.00
54936;BME280;40838;50.676;7.838;2023-02-15T07:20:00;99509.88;;;-4.54;100.00
54936;BME280;40838;50.676;7.838;2023-02-15T07:22:28;99510.75;;;-4.45;100.00
54936;BME280;40838;50.676;7.838;2023-02-15T07:24:55;99497.00;;;-4.37;100.00
54936;BME280;40838;50.676;7.838;2023-02-15T07:27:24;99464.63;;;-4.17;100.00
54936;BME280;40838;50.676;7.838;2023-02-15T07:29:50;99504.38;;;-4.33;100.00
54936;BME280;40838;50.676;7.838;2023-02-15T07:32:17;99501.13;;;-4.09;100.00
54936;BME280;40838;50.676;7.838;2023-02-15T07:34:44;99496.59;;;-4.07;100.00
54936;BME280;40838;50.676;7.838;2023-02-15T07:37:11;99501.41;;;-4.38;100.00
54936;BME280;40838;50.676;7.838;2023-02-15T07:39:38;99512.41;;;-4.00;100.00
54936;BME280;40838;50.676;7.838;2023-02-15T07:42:06;99493.56;;;-3.94;100.00
54936;BME280;40838;50.676;7.838;2023-02-15T07:44:37;99494.50;;;-3.69;100.00
54936;BME280;40838;50.676;7.838;2023-02-15T07:47:03;99502.38;;;-3.87;100.00
54936;BME280;40838;50.676;7.838;2023-02-15T07:49:33;99500.00;;;-3.72;100.00
54936;BME280;40838;50.676;7.838;2023-02-15T07:52:00;99506.94;;;-3.89;100.00
54936;BME280;40838;50.676;7.838;2023-02-15T07:54:27;99500.00;;;-3.72;100.00
54936;BME280;40838;50.676;7.838;2023-02-15T07:56:54;99498.78;;;-3.60;100.00
54936;BME280;40838;50.676;7.838;2023-02-15T07:59:21;99506.53;;;-3.25;100.00
54936;BME280;40838;50.676;7.838;2023-02-15T08:01:50;99521.09;;;-3.57;100.00
54936;BME280;40838;50.676;7.838;2023-02-15T08:04:19;99500.78;;;-3.45;100.00
54936;BME280;40838;50.676;7.838;2023-02-15T08:06:46;99503.44;;;-3.29;100.00
54936;BME280;40838;50.676;7.838;2023-02-15T08:09:13;99503.09;;;-3.34;100.00
54936;BME280;40838;50.676;7.838;2023-02-15T08:11:39;99486.22;;;-3.06;100.00
54936;BME280;40838;50.676;7.838;2023-02-15T08:14:10;99469.47;;;-2.62;100.00
54936;BME280;40838;50.676;7.838;2023-02-15T08:16:39;99477.78;;;-2.83;100.00
54936;BME280;40838;50.676;7.838;2023-02-15T08:19:09;99457.09;;;-2.52;100.00
54936;BME280;40838;50.676;7.838;2023-02-15T08:21:38;99452.81;;;-1.41;100.00
54936;BME280;40838;50.676;7.838;2023-02-15T08:24:06;99457.78;;;-2.02;100.00
54936;BME280;40838;50.676;7.838;2023-02-15T08:26:34;99445.22;;;-1.99;100.00
54936;BME280;40838;50.676;7.838;2023-02-15T08:29:01;99443.94;;;-0.11;100.00
54936;BME280;40838;50.676;7.838;2023-02-15T08:31:46;99459.88;;;-1.19;100.00
54936;BME280;40838;50.676;7.838;2023-02-15T08:34:16;99458.09;;;-1.18;100.00
54936;BME280;40838;50.676;7.838;2023-02-15T08:36:44;99453.03;;;-1.20;100.00
54936;BME280;40838;50.676;7.838;2023-02-15T08:39:12;99454.81;;;-1.20;100.00
54936;BME280;40838;50.676;7.838;2023-02-15T08:41:42;99444.44;;;-0.45;100.00
54936;BME280;40838;50.676;7.838;2023-02-15T08:44:10;99445.00;;;-0.35;100.00
54936;BME280;40838;50.676;7.838;2023-02-15T08:46:40;99447.19;;;0.51;100.00
54936;BME280;40838;50.676;7.838;2023-02-15T08:49:07;99452.81;;;-0.64;100.00
54936;BME280;40838;50.676;7.838;2023-02-15T08:51:37;99440.97;;;0.22;100.00
54936;BME280;40838;50.676;7.838;2023-02-15T08:54:06;99450.84;;;0.20;100.00
54936;BME280;40838;50.676;7.838;2023-02-15T08:56:38;99426.50;;;1.48;100.00
54936;BME280;40838;50.676;7.838;2023-02-15T08:59:07;99434.19;;;0.28;100.00
54936;BME280;40838;50.676;7.838;2023-02-15T09:01:37;99430.91;;;0.55;100.00
54936;BME280;40838;50.676;7.838;2023-02-15T09:04:06;99438.34;;;0.37;100.00
54936;BME280;40838;50.676;7.838;2023-02-15T09:06:36;99431.59;;;-0.02;100.00
54936;BME280;40838;50.676;7.838;2023-02-15T09:09:03;99436.09;;;-0.11;100.00
54936;BME280;40838;50.676;7.838;2023-02-15T09:11:33;99424.97;;;0.47;100.00
54936;BME280;40838;50.676;7.838;2023-02-15T09:14:02;99452.38;;;-0.00;100.00
54936;BME280;40838;50.676;7.838;2023-02-15T09:16:31;99417.66;;;1.84;100.00
54936;BME280;40838;50.676;7.838;2023-02-15T09:18:58;99432.41;;;2.20;100.00
54936;BME280;40838;50.676;7.838;2023-02-15T09:21:27;99432.81;;;0.83;100.00
54936;BME280;40838;50.676;7.838;2023-02-15T09:23:57;99440.94;;;0.52;100.00
54936;BME280;40838;50.676;7.838;2023-02-15T09:26:26;99428.31;;;0.77;100.00
54936;BME280;40838;50.676;7.838;2023-02-15T09:28:55;99440.34;;;0.93;100.00
54936;BME280;40838;50.676;7.838;2023-02-15T09:31:25;99420.44;;;0.98;100.00
54936;BME280;40838;50.676;7.838;2023-02-15T09:33:53;99427.13;;;1.50;100.00
54936;BME280;40838;50.676;7.838;2023-02-15T09:36:23;99422.59;;;1.38;100.00
54936;BME280;40838;50.676;7.838;2023-02-15T09:38:56;99419.84;;;1.24;100.00
54936;BME280;40838;50.676;7.838;2023-02-15T09:42:00;99421.34;;;1.90;100.00
54936;BME280;40838;50.676;7.838;2023-02-15T09:44:42;99436.28;;;1.33;100.00
54936;BME280;40838;50.676;7.838;2023-02-15T09:47:27;99431.13;;;2.09;100.00
54936;BME280;40838;50.676;7.838;2023-02-15T09:50:03;99430.81;;;1.56;100.00
54936;BME280;40838;50.676;7.838;2023-02-15T09:52:46;99427.22;;;1.36;100.00
54936;BME280;40838;50.676;7.838;2023-02-15T09:55:30;99422.03;;;2.05;100.00
54936;BME280;40838;50.676;7.838;2023-02-15T09:58:03;99430.13;;;1.47;100.00
54936;BME280;40838;50.676;7.838;2023-02-15T10:00:43;99420.91;;;1.86;100.00
54936;BME280;40838;50.676;7.838;2023-02-15T10:03:37;99429.56;;;2.63;100.00
54936;BME280;40838;50.676;7.838;2023-02-15T10:06:20;99442.03;;;1.22;100.00
54936;BME280;40838;50.676;7.838;2023-02-15T10:09:00;99423.69;;;2.54;100.00
54936;BME280;40838;50.676;7.838;2023-02-15T10:11:39;99444.16;;;1.89;100.00
54936;BME280;40838;50.676;7.838;2023-02-15T10:14:22;99444.75;;;1.57;100.00
54936;BME280;40838;50.676;7.838;2023-02-15T10:16:59;99434.41;;;2.18;100.00
54936;BME280;40838;50.676;7.838;2023-02-15T10:19:35;99433.97;;;2.49;100.00
54936;BME280;40838;50.676;7.838;2023-02-15T10:22:13;99436.88;;;1.85;100.00
54936;BME280;40838;50.676;7.838;2023-02-15T10:25:17;99455.59;;;1.75;100.00
54936;BME280;40838;50.676;7.838;2023-02-15T10:27:49;99449.03;;;2.82;100.00
54936;BME280;40838;50.676;7.838;2023-02-15T10:30:20;99457.66;;;2.14;100.00
54936;BME280;40838;50.676;7.838;2023-02-15T10:32:57;99456.84;;;2.14;100.00
54936;BME280;40838;50.676;7.838;2023-02-15T10:35:34;99453.03;;;2.58;100.00
54936;BME280;40838;50.676;7.838;2023-02-15T10:38:19;99440.34;;;2.95;100.00
54936;BME280;40838;50.676;7.838;2023-02-15T10:40:56;99456.31;;;2.80;100.00
54936;BME280;40838;50.676;7.838;2023-02-15T10:43:45;99437.50;;;2.76;100.00
54936;BME280;40838;50.676;7.838;2023-02-15T10:46:27;99439.72;;;2.86;100.00
54936;BME280;40838;50.676;7.838;2023-02-15T10:49:12;99431.19;;;2.57;100.00
54936;BME280;40838;50.676;7.838;2023-02-15T10:51:51;99417.06;;;2.30;100.00
54936;BME280;40838;50.676;7.838;2023-02-15T10:54:28;99430.94;;;2.52;100.00
54936;BME280;40838;50.676;7.838;2023-02-15T10:57:03;99431.25;;;1.94;100.00
54936;BME280;40838;50.676;7.838;2023-02-15T10:59:40;99426.88;;;2.08;100.00
54936;BME280;40838;50.676;7.838;2023-02-15T11:02:18;99445.03;;;1.97;100.00
54936;BME280;40838;50.676;7.838;2023-02-15T11:04:52;99427.91;;;2.55;100.00
54936;BME280;40838;50.676;7.838;2023-02-15T11:07:23;99424.19;;;3.11;100.00
54936;BME280;40838;50.676;7.838;2023-02-15T11:09:56;99428.03;;;3.62;98.91
54936;BME280;40838;50.676;7.838;2023-02-15T11:12:28;99428.44;;;3.59;98.86
54936;BME280;40838;50.676;7.838;2023-02-15T11:15:01;99429.41;;;2.91;100.00
54936;BME280;40838;50.676;7.838;2023-02-15T11:17:35;99418.03;;;2.64;100.00
54936;BME280;40838;50.676;7.838;2023-02-15T11:20:15;99408.75;;;2.75;100.00
54936;BME280;40838;50.676;7.838;2023-02-15T11:22:47;99407.97;;;3.41;99.23
54936;BME280;40838;50.676;7.838;2023-02-15T11:25:18;99406.63;;;2.44;100.00
54936;BME280;40838;50.676;7.838;2023-02-15T11:27:47;99403.84;;;3.98;98.43
54936;BME280;40838;50.676;7.838;2023-02-15T11:30:19;99395.94;;;2.58;100.00
54936;BME280;40838;50.676;7.838;2023-02-15T11:32:49;99395.84;;;3.40;99.96
54936;BME280;40838;50.676;7.838;2023-02-15T11:35:22;99399.06;;;3.02;100.00
54936;BME280;40838;50.676;7.838;2023-02-15T11:37:54;99396.94;;;2.51;100.00
54936;BME280;40838;50.676;7.838;2023-02-15T11:40:25;99388.53;;;3.02;100.00
54936;BME280;40838;50.676;7.838;2023-02-15T11:42:55;99373.97;;;2.93;100.00
54936;BME280;40838;50.676;7.838;2023-02-15T11:45:27;99365.03;;;2.94;100.00
54936;BME280;40838;50.676;7.838;2023-02-15T11:47:57;99368.25;;;3.56;100.00
54936;BME280;40838;50.676;7.838;2023-02-15T11:50:31;99373.72;;;3.54;100.00
54936;BME280;40838;50.676;7.838;2023-02-15T11:53:02;99373.53;;;2.76;100.00
54936;BME280;40838;50.676;7.838;2023-02-15T11:55:30;99363.63;;;2.98;100.00
54936;BME280;40838;50.676;7.838;2023-02-15T11:58:04;99358.13;;;3.52;100.00
54936;BME280;40838;50.676;7.838;2023-02-15T12:00:37;99361.81;;;3.12;100.00
54936;BME280;40838;50.676;7.838;2023-02-15T12:03:14;99370.91;;;2.69;100.00
54936;BME280;40838;50.676;7.838;2023-02-15T12:05:46;99358.97;;;3.13;100.00
54936;BME280;40838;50.676;7.838;2023-02-15T12:08:16;99348.19;;;2.48;100.00
54936;BME280;40838;50.676;7.838;2023-02-15T12:10:55;99348.75;;;2.37;100.00
54936;BME280;40838;50.676;7.838;2023-02-15T12:13:23;99364.34;;;2.38;100.00
54936;BME280;40838;50.676;7.838;2023-02-15T12:15:54;99353.09;;;2.84;100.00
54936;BME280;40838;50.676;7.838;2023-02-15T12:18:34;99350.13;;;2.26;100.00
54936;BME280;40838;50.676;7.838;2023-02-15T12:21:05;99347.41;;;2.94;100.00
54936;BME280;40838;50.676;7.838;2023-02-15T12:23:34;99347.25;;;2.21;100.00
54936;BME280;40838;50.676;7.838;2023-02-15T12:26:06;99348.34;;;1.92;100.00
54936;BME280;40838;50.676;7.838;2023-02-15T12:28:34;99340.00;;;2.23;100.00
54936;BME280;40838;50.676;7.838;2023-02-15T12:31:07;99355.19;;;2.28;100.00
54936;BME280;40838;50.676;7.838;2023-02-15T12:33:41;99338.31;;;2.63;100.00
54936;BME280;40838;50.676;7.838;2023-02-15T12:36:11;99338.97;;;2.24;100.00
54936;BME280;40838;50.676;7.838;2023-02-15T12:38:38;99330.16;;;2.38;100.00
54936;BME280;40838;50.676;7.838;2023-02-15T12:41:22;99332.00;;;2.71;100.00
54936;BME280;40838;50.676;7.838;2023-02-15T12:44:03;99322.06;;;2.40;100.00
54936;BME280;40838;50.676;7.838;2023-02-15T12:46:34;99321.94;;;2.07;100.00
54936;BME280;40838;50.676;7.838;2023-02-15T12:49:16;99322.22;;;2.25;100.00
54936;BME280;40838;50.676;7.838;2023-02-15T12:51:46;99310.94;;;2.45;100.00
54936;BME280;40838;50.676;7.838;2023-02-15T12:54:35;99318.09;;;2.09;100.00
54936;BME280;40838;50.676;7.838;2023-02-15T12:57:25;99309.72;;;2.47;100.00
54936;BME280;40838;50.676;7.838;2023-02-15T12:59:54;99319.59;;;2.32;100.00
54936;BME280;40838;50.676;7.838;2023-02-15T13:02:28;99300.16;;;2.26;100.00
54936;BME280;40838;50.676;7.838;2023-02-15T13:04:57;99323.59;;;2.21;100.00
54936;BME280;40838;50.676;7.838;2023-02-15T13:07:31;99308.75;;;2.48;100.00
54936;BME280;40838;50.676;7.838;2023-02-15T13:09:58;99305.59;;;2.18;100.00
54936;BME280;40838;50.676;7.838;2023-02-15T13:12:27;99303.53;;;2.07;100.00
54936;BME280;40838;50.676;7.838;2023-02-15T13:14:58;99294.56;;;2.62;100.00
54936;BME280;40838;50.676;7.838;2023-02-15T13:17:31;99280.59;;;2.55;100.00
54936;BME280;40838;50.676;7.838;2023-02-15T13:20:04;99288.09;;;2.65;100.00